createdAt,value
2018-10-09T00:00:57.945Z,8.60
2018-10-09T00:03:25.684Z,8.50
2018-10-09T00:05:53.417Z,8.40
2018-10-09T00:08:21.896Z,8.30
2018-10-09T00:10:49.613Z,8.20
2018-10-09T00:13:17.286Z,8.10
2018-10-09T00:15:44.988Z,8.20
2018-10-09T00:18:12.810Z,8.30
2018-10-09T00:20:40.501Z,8.20
2018-10-09T00:23:08.533Z,8.20
2018-10-09T00:25:36.694Z,8.20
2018-10-09T00:28:04.381Z,8.40
2018-10-09T00:30:32.096Z,8.50
2018-10-09T00:32:59.775Z,8.60
2018-10-09T00:35:27.505Z,8.60
2018-10-09T00:37:55.209Z,8.60
2018-10-09T00:40:22.922Z,8.60
2018-10-09T00:42:50.657Z,8.70
2018-10-09T00:45:18.400Z,8.60
2018-10-09T00:47:48.377Z,8.60
2018-10-09T00:50:16.085Z,8.50
2018-10-09T00:52:43.769Z,8.40
2018-10-09T00:55:11.517Z,8.20
2018-10-09T00:57:39.196Z,8.10
2018-10-09T01:00:07.445Z,8.00
2018-10-09T01:02:35.121Z,8.00
2018-10-09T01:05:02.839Z,8.00
2018-10-09T01:07:30.507Z,8.00
2018-10-09T01:09:58.237Z,8.00
2018-10-09T01:12:25.903Z,8.00
2018-10-09T01:14:53.605Z,8.00
2018-10-09T01:17:21.268Z,8.00
2018-10-09T01:19:49.040Z,8.10
2018-10-09T01:22:16.768Z,8.00
2018-10-09T01:24:44.456Z,8.00
2018-10-09T01:27:12.248Z,7.90
2018-10-09T01:29:39.947Z,7.90
2018-10-09T01:32:08.787Z,7.90
2018-10-09T01:34:36.449Z,7.90
2018-10-09T01:37:04.803Z,7.80
2018-10-09T01:39:32.476Z,7.80
2018-10-09T01:42:00.158Z,7.80
2018-10-09T01:44:27.815Z,7.90
2018-10-09T01:46:55.534Z,8.00
2018-10-09T01:49:24.000Z,7.90
2018-10-09T01:51:51.800Z,7.90
2018-10-09T01:54:19.504Z,7.80
2018-10-09T01:56:47.270Z,7.70
2018-10-09T01:59:15.221Z,7.50
2018-10-09T02:01:42.924Z,7.40
2018-10-09T02:04:10.624Z,7.30
2018-10-09T02:06:38.352Z,7.30
2018-10-09T02:09:06.993Z,7.20
2018-10-09T02:11:35.233Z,7.20
2018-10-09T02:14:02.977Z,7.20
2018-10-09T02:16:30.700Z,7.20
2018-10-09T02:18:58.437Z,7.20
2018-10-09T02:21:26.262Z,7.20
2018-10-09T02:23:53.991Z,7.30
2018-10-09T02:26:21.677Z,7.40
2018-10-09T02:28:49.357Z,7.40
2018-10-09T02:31:17.107Z,7.40
2018-10-09T02:33:46.600Z,7.50
2018-10-09T02:36:14.214Z,7.60
2018-10-09T02:38:41.896Z,7.60
2018-10-09T02:41:09.652Z,7.50
2018-10-09T02:43:37.372Z,7.60
2018-10-09T02:46:05.149Z,7.50
2018-10-09T02:48:32.832Z,7.40
2018-10-09T02:51:00.517Z,7.40
2018-10-09T02:53:28.176Z,7.40
2018-10-09T02:55:55.895Z,7.30
2018-10-09T02:58:23.564Z,7.30
2018-10-09T03:00:51.304Z,7.30
2018-10-09T03:03:18.981Z,7.20
2018-10-09T03:05:46.653Z,7.20
2018-10-09T03:08:14.356Z,7.20
2018-10-09T03:10:42.674Z,7.20
2018-10-09T03:13:10.342Z,7.20
2018-10-09T03:15:38.069Z,7.20
2018-10-09T03:18:05.726Z,7.30
2018-10-09T03:20:33.440Z,7.30
2018-10-09T03:23:01.140Z,7.40
2018-10-09T03:25:28.833Z,7.40
2018-10-09T03:27:56.565Z,7.50
2018-10-09T03:30:24.282Z,7.50
2018-10-09T03:32:51.942Z,7.50
2018-10-09T03:35:19.607Z,7.40
2018-10-09T03:37:47.335Z,7.40
2018-10-09T03:40:15.008Z,7.40
2018-10-09T03:42:42.725Z,7.40
2018-10-09T03:45:10.424Z,7.40
2018-10-09T03:47:38.135Z,7.40
2018-10-09T03:50:05.952Z,7.30
2018-10-09T03:52:33.632Z,7.30
2018-10-09T03:55:01.337Z,7.40
2018-10-09T03:57:29.021Z,7.30
2018-10-09T03:59:56.704Z,7.40
2018-10-09T04:02:24.424Z,7.30
2018-10-09T04:04:52.124Z,7.40
2018-10-09T04:07:19.832Z,7.40
2018-10-09T04:09:47.531Z,7.40
2018-10-09T04:12:15.334Z,7.50
2018-10-09T04:14:43.042Z,7.50
2018-10-09T04:17:10.750Z,7.50
2018-10-09T04:19:38.439Z,7.50
2018-10-09T04:22:06.662Z,7.50
2018-10-09T04:24:34.332Z,7.40
2018-10-09T04:27:02.026Z,7.50
2018-10-09T04:29:29.808Z,7.50
2018-10-09T04:31:57.388Z,7.50
2018-10-09T04:34:25.113Z,7.50
2018-10-09T04:36:53.342Z,7.50
2018-10-09T04:39:21.053Z,7.60
2018-10-09T04:41:48.744Z,7.70
2018-10-09T04:44:16.417Z,7.60
2018-10-09T04:46:44.148Z,7.70
2018-10-09T04:49:11.871Z,7.60
2018-10-09T04:51:39.623Z,7.70
2018-10-09T04:54:07.284Z,7.70
2018-10-09T04:56:34.972Z,7.70
2018-10-09T04:59:02.673Z,7.70
2018-10-09T05:01:30.346Z,7.70
2018-10-09T05:03:58.028Z,7.70
2018-10-09T05:06:25.697Z,7.70
2018-10-09T05:08:53.372Z,7.70
2018-10-09T05:11:21.061Z,7.80
2018-10-09T05:13:48.771Z,7.80
2018-10-09T05:16:16.483Z,7.80
2018-10-09T05:18:44.181Z,7.70
2018-10-09T05:21:11.973Z,7.60
2018-10-09T05:23:39.649Z,7.70
2018-10-09T05:26:07.519Z,7.60
2018-10-09T05:28:35.200Z,7.60
2018-10-09T05:31:02.912Z,7.50
2018-10-09T05:33:30.602Z,7.60
2018-10-09T05:35:58.270Z,7.70
2018-10-09T05:38:28.112Z,7.80
2018-10-09T05:40:55.781Z,7.80
2018-10-09T05:43:23.464Z,7.80
2018-10-09T05:45:51.152Z,7.80
2018-10-09T05:48:19.281Z,7.80
2018-10-09T05:50:46.951Z,7.70
2018-10-09T05:53:14.658Z,7.60
2018-10-09T05:55:42.761Z,7.60
2018-10-09T05:58:10.633Z,7.50
2018-10-09T06:00:38.442Z,7.30
2018-10-09T06:03:07.433Z,7.40
2018-10-09T06:05:40.867Z,7.30
2018-10-09T06:08:08.550Z,7.30
2018-10-09T06:10:36.277Z,7.10
2018-10-09T06:13:03.957Z,7.10
2018-10-09T06:15:31.651Z,7.10
2018-10-09T06:17:59.332Z,7.20
2018-10-09T06:20:27.000Z,7.40
2018-10-09T06:22:54.780Z,7.60
2018-10-09T06:25:22.449Z,7.80
2018-10-09T06:27:50.772Z,8.00
2018-10-09T06:30:18.436Z,8.20
2018-10-09T06:32:46.116Z,8.40
2018-10-09T06:35:13.823Z,8.50
2018-10-09T06:37:41.500Z,8.60
2018-10-09T06:40:09.221Z,8.80
2018-10-09T06:42:36.880Z,8.90
2018-10-09T06:45:04.749Z,9.00
2018-10-09T06:47:32.516Z,9.10
2018-10-09T06:50:00.093Z,9.20
2018-10-09T06:52:27.861Z,9.30
2018-10-09T06:54:55.561Z,9.40
2018-10-09T06:57:23.215Z,9.50
2018-10-09T06:59:50.976Z,9.70
2018-10-09T07:02:18.690Z,9.90
2018-10-09T07:04:46.371Z,10.00
2018-10-09T07:07:14.072Z,10.20
2018-10-09T07:09:41.749Z,10.40
2018-10-09T07:12:09.429Z,10.60
2018-10-09T07:14:37.125Z,10.70
2018-10-09T07:17:04.880Z,10.90
2018-10-09T07:19:32.612Z,11.00
2018-10-09T07:22:00.264Z,11.20
2018-10-09T07:24:27.954Z,11.30
2018-10-09T07:26:55.637Z,11.40
2018-10-09T07:29:23.300Z,11.40
2018-10-09T07:31:50.970Z,11.50
2018-10-09T07:34:18.637Z,11.70
2018-10-09T07:36:46.350Z,12.00
2018-10-09T07:39:14.335Z,12.30
2018-10-09T07:41:42.661Z,12.30
2018-10-09T07:44:10.526Z,12.50
2018-10-09T07:46:38.138Z,12.50
2018-10-09T07:49:05.816Z,12.60
2018-10-09T07:51:33.802Z,12.90
2018-10-09T07:54:01.504Z,13.10
2018-10-09T07:56:29.168Z,13.30
2018-10-09T07:58:57.128Z,13.50
2018-10-09T08:01:24.799Z,13.80
2018-10-09T08:03:52.493Z,14.00
2018-10-09T08:06:20.181Z,13.80
2018-10-09T08:08:47.918Z,13.60
2018-10-09T08:11:15.602Z,13.30
2018-10-09T08:13:43.330Z,13.10
2018-10-09T08:16:11.442Z,13.20
2018-10-09T08:18:39.037Z,13.20
2018-10-09T08:21:06.801Z,13.20
2018-10-09T08:23:34.606Z,13.20
2018-10-09T08:26:02.552Z,13.20
2018-10-09T08:28:30.628Z,13.30
2018-10-09T08:30:58.413Z,13.40
2018-10-09T08:33:26.097Z,13.30
2018-10-09T08:35:53.772Z,13.30
2018-10-09T08:38:21.438Z,13.30
2018-10-09T08:40:49.134Z,13.40
2018-10-09T08:43:16.791Z,13.40
2018-10-09T08:45:44.580Z,13.50
2018-10-09T08:48:12.399Z,13.60
2018-10-09T08:50:40.096Z,13.60
2018-10-09T08:53:07.776Z,13.60
2018-10-09T08:55:35.548Z,13.70
2018-10-09T08:58:03.283Z,13.80
2018-10-09T09:00:30.960Z,13.90
2018-10-09T09:02:59.645Z,14.20
2018-10-09T09:05:27.398Z,14.20
2018-10-09T09:07:55.110Z,14.30
2018-10-09T09:10:22.805Z,14.40
2018-10-09T09:12:50.480Z,14.60
2018-10-09T09:15:18.171Z,14.80
2018-10-09T09:17:45.841Z,15.00
2018-10-09T09:20:13.550Z,15.40
2018-10-09T09:22:41.210Z,15.90
2018-10-09T09:25:08.907Z,16.30
2018-10-09T09:27:36.635Z,16.60
2018-10-09T09:30:04.693Z,16.60
2018-10-09T09:32:32.377Z,16.90
2018-10-09T09:35:00.092Z,17.20
2018-10-09T09:37:27.780Z,17.30
2018-10-09T09:39:55.505Z,17.20
2018-10-09T09:42:23.196Z,17.40
2018-10-09T09:44:50.975Z,17.90
2018-10-09T09:47:18.650Z,18.10
2018-10-09T09:49:46.322Z,18.40
2018-10-09T09:52:14.132Z,18.40
2018-10-09T09:54:41.851Z,18.40
2018-10-09T09:57:09.557Z,18.50
2018-10-09T09:59:37.344Z,18.40
2018-10-09T10:02:05.017Z,18.30
2018-10-09T10:04:32.745Z,18.30
2018-10-09T10:07:00.442Z,18.70
2018-10-09T10:09:28.223Z,19.00
2018-10-09T10:11:55.873Z,19.00
2018-10-09T10:14:23.553Z,19.20
2018-10-09T10:16:51.247Z,19.30
2018-10-09T10:19:18.912Z,19.30
2018-10-09T10:21:46.625Z,19.40
2018-10-09T10:24:14.376Z,19.70
2018-10-09T10:26:42.053Z,19.60
2018-10-09T10:29:09.818Z,19.70
2018-10-09T10:31:37.485Z,19.60
2018-10-09T10:34:05.169Z,19.50
2018-10-09T10:36:32.917Z,19.50
2018-10-09T10:39:00.638Z,19.70
2018-10-09T10:41:28.370Z,19.80
2018-10-09T10:43:56.151Z,19.60
2018-10-09T10:46:28.596Z,19.60
2018-10-09T10:49:01.421Z,19.60
2018-10-09T10:51:29.086Z,19.50
2018-10-09T10:53:57.181Z,19.60
2018-10-09T10:56:24.873Z,19.60
2018-10-09T10:58:52.570Z,19.80
2018-10-09T11:01:20.300Z,19.90
2018-10-09T11:03:47.978Z,19.60
2018-10-09T11:06:16.292Z,19.50
2018-10-09T11:08:44.005Z,19.40
2018-10-09T11:11:11.759Z,19.00
2018-10-09T11:13:39.494Z,19.10
2018-10-09T11:16:07.272Z,19.30
2018-10-09T11:18:35.013Z,19.60
2018-10-09T11:21:02.693Z,19.70
2018-10-09T11:23:30.380Z,19.50
2018-10-09T11:25:58.641Z,19.80
2018-10-09T11:28:26.384Z,20.00
2018-10-09T11:30:54.258Z,20.20
2018-10-09T11:33:21.967Z,20.20
2018-10-09T11:35:49.713Z,20.40
2018-10-09T11:38:17.442Z,20.90
2018-10-09T11:40:45.140Z,21.00
2018-10-09T11:43:12.861Z,20.80
2018-10-09T11:45:41.568Z,21.10
2018-10-09T11:48:09.289Z,21.10
2018-10-09T11:50:37.079Z,20.90
2018-10-09T11:53:04.761Z,21.20
2018-10-09T11:55:32.505Z,22.00
2018-10-09T11:58:02.174Z,22.40
2018-10-09T12:00:32.532Z,22.70
2018-10-09T12:03:00.259Z,22.50
2018-10-09T12:05:27.952Z,22.60
2018-10-09T12:07:55.642Z,22.20
2018-10-09T12:10:23.333Z,22.00
2018-10-09T12:12:51.018Z,22.60
2018-10-09T12:15:18.785Z,22.90
2018-10-09T12:17:46.478Z,23.10
2018-10-09T12:20:14.205Z,22.90
2018-10-09T12:22:41.981Z,23.60
2018-10-09T12:25:09.705Z,23.00
2018-10-09T12:27:37.394Z,23.20
2018-10-09T12:30:05.586Z,23.10
2018-10-09T12:32:33.438Z,22.20
2018-10-09T12:35:01.142Z,21.70
2018-10-09T12:37:28.800Z,21.80
2018-10-09T12:39:56.784Z,21.80
2018-10-09T12:42:24.502Z,21.70
2018-10-09T12:44:52.192Z,21.00
2018-10-09T12:47:19.862Z,20.80
2018-10-09T12:49:47.565Z,20.60
2018-10-09T12:52:16.244Z,20.30
2018-10-09T12:54:44.123Z,20.30
2018-10-09T12:57:11.900Z,20.40
2018-10-09T12:59:39.534Z,20.40
2018-10-09T13:02:07.231Z,20.40
2018-10-09T13:04:34.947Z,20.80
2018-10-09T13:07:02.641Z,20.90
2018-10-09T13:09:30.415Z,20.70
2018-10-09T13:11:58.104Z,20.50
2018-10-09T13:14:25.782Z,20.60
2018-10-09T13:16:53.485Z,20.70
2018-10-09T13:19:21.240Z,20.90
2018-10-09T13:21:49.288Z,20.80
2018-10-09T13:24:16.636Z,21.30
2018-10-09T13:26:44.351Z,21.90
2018-10-09T13:29:12.021Z,22.10
2018-10-09T13:31:40.103Z,21.80
2018-10-09T13:34:07.861Z,21.30
2018-10-09T13:36:35.552Z,21.40
2018-10-09T13:39:03.840Z,21.60
2018-10-09T13:41:31.625Z,21.40
2018-10-09T13:43:59.307Z,21.20
2018-10-09T13:46:27.033Z,21.40
2018-10-09T13:48:54.726Z,21.60
2018-10-09T13:51:22.458Z,21.60
2018-10-09T13:53:50.178Z,21.80
2018-10-09T13:56:17.860Z,21.60
2018-10-09T13:58:45.552Z,22.10
2018-10-09T14:01:13.251Z,22.70
2018-10-09T14:03:40.952Z,22.80
2018-10-09T14:06:08.710Z,22.60
2018-10-09T14:08:36.379Z,22.40
2018-10-09T14:11:04.095Z,22.20
2018-10-09T14:13:31.798Z,22.70
2018-10-09T14:15:59.461Z,23.00
2018-10-09T14:18:27.167Z,23.80
2018-10-09T14:20:54.881Z,23.80
2018-10-09T14:23:22.565Z,24.40
2018-10-09T14:25:50.246Z,24.50
2018-10-09T14:28:17.940Z,24.10
2018-10-09T14:30:45.632Z,24.30
2018-10-09T14:33:17.153Z,24.30
2018-10-09T14:35:44.860Z,23.90
2018-10-09T14:38:12.539Z,24.30
2018-10-09T14:40:40.242Z,24.30
2018-10-09T14:43:07.934Z,24.10
2018-10-09T14:45:35.640Z,24.30
2018-10-09T14:48:03.337Z,24.20
2018-10-09T14:50:31.054Z,24.30
2018-10-09T14:52:58.745Z,24.60
2018-10-09T14:55:26.528Z,24.70
2018-10-09T14:57:54.281Z,24.10
2018-10-09T15:00:22.275Z,24.20
2018-10-09T15:02:50.057Z,24.10
2018-10-09T15:05:18.060Z,23.90
2018-10-09T15:07:45.847Z,24.10
2018-10-09T15:10:13.851Z,24.40
2018-10-09T15:12:41.670Z,24.00
2018-10-09T15:15:09.376Z,24.00
2018-10-09T15:17:37.179Z,24.30
2018-10-09T15:20:05.282Z,23.30
2018-10-09T15:22:33.022Z,22.30
2018-10-09T15:25:00.729Z,21.90
2018-10-09T15:27:28.407Z,21.60
2018-10-09T15:29:56.121Z,20.20
2018-10-09T15:32:23.833Z,21.50
2018-10-09T15:34:51.609Z,21.20
2018-10-09T15:37:19.273Z,21.00
2018-10-09T15:39:47.844Z,21.00
2018-10-09T15:42:15.608Z,20.90
2018-10-09T15:44:43.741Z,20.90
2018-10-09T15:47:13.576Z,20.70
2018-10-09T15:49:41.233Z,20.70
2018-10-09T15:52:10.061Z,20.70
2018-10-09T15:54:37.797Z,20.70
2018-10-09T15:57:05.502Z,20.70
2018-10-09T15:59:33.208Z,20.70
2018-10-09T16:02:00.913Z,20.40
2018-10-09T16:04:28.615Z,20.30
2018-10-09T16:06:57.742Z,20.40
2018-10-09T16:09:25.688Z,20.20
2018-10-09T16:11:53.368Z,20.20
2018-10-09T16:14:21.173Z,20.20
2018-10-09T16:16:48.909Z,20.10
2018-10-09T16:19:16.573Z,20.00
2018-10-09T16:21:44.271Z,19.90
2018-10-09T16:24:11.946Z,19.80
2018-10-09T16:26:39.929Z,19.80
2018-10-09T16:29:08.327Z,19.70
2018-10-09T16:31:36.079Z,19.60
2018-10-09T16:37:56.563Z,19.40
2018-10-09T16:43:34.599Z,19.10
2018-10-09T16:46:03.743Z,18.90
2018-10-09T16:51:45.714Z,18.50
2018-10-09T16:54:13.395Z,18.40
2018-10-09T16:56:41.085Z,18.20
2018-10-09T16:59:08.811Z,18.10
2018-10-09T17:01:36.548Z,17.80
2018-10-09T17:04:04.301Z,17.60
2018-10-09T17:06:31.977Z,17.40
2018-10-09T17:08:59.661Z,17.20
2018-10-09T17:11:27.320Z,17.00
2018-10-09T17:13:55.021Z,16.90
2018-10-09T17:16:22.734Z,16.90
2018-10-09T17:18:50.437Z,16.70
2018-10-09T17:21:18.152Z,16.60
2018-10-09T17:23:46.816Z,16.50
2018-10-09T17:26:14.501Z,16.40
2018-10-09T17:28:42.191Z,16.30
2018-10-09T17:31:09.893Z,16.20
2018-10-09T17:33:37.747Z,16.10
2018-10-09T17:36:05.425Z,16.20
2018-10-09T17:38:33.126Z,16.20
2018-10-09T17:41:00.836Z,16.00
2018-10-09T17:43:29.393Z,15.90
2018-10-09T17:45:57.092Z,15.80
2018-10-09T17:48:24.788Z,15.80
2018-10-09T17:50:52.464Z,15.80
2018-10-09T17:53:20.133Z,15.80
2018-10-09T17:55:48.451Z,15.60
2018-10-09T17:58:16.142Z,15.50
2018-10-09T18:00:43.886Z,15.40
2018-10-09T18:03:11.702Z,15.30
2018-10-09T18:05:39.365Z,15.20
2018-10-09T18:08:07.146Z,15.10
2018-10-09T18:10:34.838Z,15.10
2018-10-09T18:13:02.523Z,15.20
2018-10-09T18:15:30.221Z,15.10
2018-10-09T18:17:57.905Z,15.10
2018-10-09T18:20:26.567Z,14.90
2018-10-09T18:22:54.146Z,14.90
2018-10-09T18:25:21.920Z,14.90
2018-10-09T18:27:49.738Z,14.90
2018-10-09T18:30:17.409Z,14.90
2018-10-09T18:32:45.259Z,14.90
2018-10-09T18:35:12.842Z,14.80
2018-10-09T18:37:40.521Z,14.70
2018-10-09T18:40:08.244Z,14.70
2018-10-09T18:42:36.072Z,14.80
2018-10-09T18:45:03.761Z,14.80
2018-10-09T18:47:36.970Z,14.70
2018-10-09T18:50:04.833Z,14.70
2018-10-09T18:52:32.564Z,14.60
2018-10-09T18:55:00.254Z,14.50
2018-10-09T18:57:27.922Z,14.50
2018-10-09T18:59:55.776Z,14.50
2018-10-09T19:02:23.458Z,14.40
2018-10-09T19:04:51.213Z,14.40
2018-10-09T19:07:18.864Z,14.30
2018-10-09T19:09:46.557Z,14.30
2018-10-09T19:12:14.233Z,14.20
2018-10-09T19:14:42.026Z,14.20
2018-10-09T19:17:09.765Z,14.20
2018-10-09T19:19:37.502Z,14.20
2018-10-09T19:22:05.201Z,14.10
2018-10-09T19:24:32.902Z,14.10
2018-10-09T19:27:00.573Z,14.00
2018-10-09T19:29:28.282Z,14.00
2018-10-09T19:31:56.108Z,14.00
2018-10-09T19:34:23.786Z,14.00
2018-10-09T19:36:51.461Z,13.90
2018-10-09T19:39:19.177Z,13.90
2018-10-09T19:41:46.867Z,13.80
2018-10-09T19:44:14.559Z,13.80
2018-10-09T19:46:42.881Z,13.80
2018-10-09T19:49:10.992Z,13.70
2018-10-09T19:51:38.763Z,13.70
2018-10-09T19:54:06.430Z,13.60
2018-10-09T19:56:34.190Z,13.50
2018-10-09T19:59:01.877Z,13.50
2018-10-09T20:01:31.016Z,13.50
2018-10-09T20:03:59.605Z,13.40
2018-10-09T20:06:27.301Z,13.40
2018-10-09T20:08:55.019Z,13.40
2018-10-09T20:11:22.750Z,13.40
2018-10-09T20:13:50.449Z,13.30
2018-10-09T20:16:18.228Z,13.30
2018-10-09T20:18:46.549Z,13.20
2018-10-09T20:21:14.241Z,13.20
2018-10-09T20:23:41.950Z,13.10
2018-10-09T20:26:09.969Z,13.10
2018-10-09T20:28:37.666Z,13.00
2018-10-09T20:31:05.491Z,13.10
2018-10-09T20:33:33.384Z,13.00
2018-10-09T20:36:02.079Z,13.00
2018-10-09T20:38:30.102Z,13.00
2018-10-09T20:40:57.773Z,13.00
2018-10-09T20:43:25.483Z,13.00
2018-10-09T20:45:53.149Z,12.90
2018-10-09T20:48:20.931Z,12.90
2018-10-09T20:50:49.991Z,12.80
2018-10-09T20:53:17.889Z,12.90
2018-10-09T20:55:45.578Z,12.80
2018-10-09T20:58:15.255Z,12.80
2018-10-09T21:00:43.093Z,12.80
2018-10-09T21:03:10.801Z,12.80
2018-10-09T21:05:38.549Z,12.70
2018-10-09T21:08:06.305Z,12.70
2018-10-09T21:10:33.998Z,12.70
2018-10-09T21:13:01.699Z,12.60
2018-10-09T21:15:29.450Z,12.60
2018-10-09T21:17:57.234Z,12.50
2018-10-09T21:20:24.930Z,12.50
2018-10-09T21:22:54.227Z,12.50
2018-10-09T21:25:22.674Z,12.40
2018-10-09T21:27:50.647Z,12.40
2018-10-09T21:30:19.019Z,12.40
2018-10-09T21:32:47.698Z,12.40
2018-10-09T21:35:15.480Z,12.30
2018-10-09T21:37:43.871Z,12.30
2018-10-09T21:40:11.636Z,12.20
2018-10-09T21:42:39.671Z,12.20
2018-10-09T21:45:07.455Z,12.20
2018-10-09T21:47:36.288Z,12.10
2018-10-09T21:50:04.112Z,12.10
2018-10-09T21:52:31.859Z,12.10
2018-10-09T21:54:59.581Z,12.10
2018-10-09T21:57:27.315Z,12.00
2018-10-09T21:59:55.467Z,12.10
2018-10-09T22:02:23.310Z,12.00
2018-10-09T22:04:51.032Z,12.00
2018-10-09T22:07:18.930Z,12.10
2018-10-09T22:09:46.793Z,12.00
2018-10-09T22:12:14.776Z,11.90
2018-10-09T22:14:42.442Z,11.80
2018-10-09T22:17:10.132Z,11.80
2018-10-09T22:19:37.914Z,11.80
2018-10-09T22:22:05.641Z,11.70
2018-10-09T22:24:33.491Z,11.70
2018-10-09T22:27:01.138Z,11.60
2018-10-09T22:29:28.862Z,11.70
2018-10-09T22:31:56.571Z,11.70
2018-10-09T22:34:24.245Z,11.60
2018-10-09T22:36:51.970Z,11.60
2018-10-09T22:39:19.840Z,11.40
2018-10-09T22:41:47.537Z,11.30
2018-10-09T22:44:15.291Z,11.20
2018-10-09T22:46:43.031Z,11.10
2018-10-09T22:49:10.786Z,11.20
2018-10-09T22:51:40.109Z,11.20
2018-10-09T22:54:07.838Z,11.30
2018-10-09T22:56:35.515Z,11.30
2018-10-09T22:59:03.220Z,11.30
2018-10-09T23:01:30.919Z,11.30
2018-10-09T23:03:58.609Z,11.20
2018-10-09T23:06:26.285Z,11.10
2018-10-09T23:08:53.979Z,11.10
2018-10-09T23:11:21.696Z,11.10
2018-10-09T23:13:49.373Z,11.10
2018-10-09T23:16:17.080Z,11.00
2018-10-09T23:18:44.784Z,10.90
2018-10-09T23:21:12.489Z,10.90
2018-10-09T23:23:40.171Z,10.90
2018-10-09T23:26:07.869Z,10.80
2018-10-09T23:28:35.922Z,10.80
2018-10-09T23:31:03.633Z,10.70
2018-10-09T23:33:31.336Z,10.80
2018-10-09T23:35:59.025Z,10.80
2018-10-09T23:38:26.755Z,10.70
2018-10-09T23:40:54.484Z,10.60
2018-10-09T23:43:22.157Z,10.60
2018-10-09T23:45:49.873Z,10.50
2018-10-09T23:48:17.636Z,10.50
2018-10-09T23:50:45.317Z,10.40
2018-10-09T23:53:13.002Z,10.40
2018-10-09T23:55:40.685Z,10.50
2018-10-09T23:58:08.386Z,10.50
